Time;durP1;ratioP1;P1;durP2;ratioP2;P2;SDS_P1;SDS_P2;PMS_P1;PMS_P2;Temp;Humidity;BMP_temperature;BMP_pressure;BME280_temperature;BME280_humidity;BME280_pressure;Samples;Min_cycle;Max_cycle;Signal;HPM_P1;HPM_P2
2021/03/03 00:00:09;;;;;;;31.47;14.40;;;3.50;99.90;;;;;;4983671;28;20516;-86
2021/03/03 00:02:38;;;;;;;27.10;13.50;;;3.50;99.90;;;;;;4981893;28;20442;-88
2021/03/03 00:05:06;;;;;;;24.93;14.30;;;3.50;99.90;;;;;;4985169;28;20435;-88
2021/03/03 00:07:32;;;;;;;26.87;14.27;;;3.50;99.90;;;;;;4983329;28;20455;-88
2021/03/03 00:09:58;;;;;;;24.57;13.03;;;3.50;99.90;;;;;;4983951;28;20493;-86
2021/03/03 00:12:25;;;;;;;22.73;13.00;;;3.40;99.90;;;;;;4979952;28;20444;-86
2021/03/03 00:14:52;;;;;;;25.43;14.37;;;3.40;99.90;;;;;;4975010;28;20965;-87
2021/03/03 00:17:18;;;;;;;29.87;13.70;;;3.40;99.90;;;;;;4973985;28;20450;-85
2021/03/03 00:19:44;;;;;;;23.10;12.70;;;3.40;99.90;;;;;;4973544;28;20466;-86
2021/03/03 00:22:11;;;;;;;25.40;13.33;;;3.40;99.90;;;;;;4974908;28;20450;-87
2021/03/03 00:24:37;;;;;;;23.57;12.83;;;3.40;99.90;;;;;;4973052;28;20450;-87
2021/03/03 00:27:04;;;;;;;24.10;12.83;;;3.30;99.90;;;;;;4974418;28;20458;-88
2021/03/03 00:29:30;;;;;;;20.70;12.77;;;3.30;99.90;;;;;;4973455;28;20494;-87
2021/03/03 00:31:58;;;;;;;26.97;13.13;;;3.30;99.90;;;;;;4973137;28;20454;-87
2021/03/03 00:34:24;;;;;;;22.50;13.03;;;3.30;99.90;;;;;;4971280;28;20478;-88
2021/03/03 00:36:50;;;;;;;25.37;12.10;;;3.30;99.90;;;;;;4970772;28;20458;-88
2021/03/03 00:39:16;;;;;;;23.83;13.43;;;3.20;99.90;;;;;;4970776;28;20450;-89
2021/03/03 00:41:43;;;;;;;17.10;11.43;;;3.20;99.90;;;;;;4974770;28;20454;-88
2021/03/03 00:44:09;;;;;;;24.53;13.83;;;3.20;99.90;;;;;;4974831;28;20450;-89
2021/03/03 00:46:35;;;;;;;22.30;12.10;;;3.20;99.90;;;;;;4973924;28;20446;-89
2021/03/03 00:49:03;;;;;;;24.97;13.20;;;3.20;99.90;;;;;;4974827;28;20450;-89
2021/03/03 00:51:29;;;;;;;29.87;14.20;;;3.20;99.90;;;;;;4974606;28;20501;-88
2021/03/03 00:53:55;;;;;;;23.87;12.43;;;3.20;99.90;;;;;;4972985;28;20480;-87
2021/03/03 00:56:22;;;;;;;21.77;13.40;;;3.00;99.90;;;;;;4974255;28;20482;-90
2021/03/03 00:58:48;;;;;;;25.10;13.63;;;3.10;99.90;;;;;;4970570;28;20451;-88
2021/03/03 01:01:14;;;;;;;25.10;11.43;;;3.10;99.90;;;;;;4974491;28;20442;-90
2021/03/03 01:03:41;;;;;;;25.40;13.73;;;3.00;99.90;;;;;;4970482;28;20462;-87
2021/03/03 01:06:08;;;;;;;19.97;12.50;;;3.00;99.90;;;;;;4974259;28;20456;-88
2021/03/03 01:08:34;;;;;;;21.23;13.23;;;3.00;99.90;;;;;;4974466;28;20446;-87
2021/03/03 01:11:00;;;;;;;23.50;12.30;;;3.10;99.90;;;;;;4974207;28;20604;-88
2021/03/03 01:13:27;;;;;;;21.13;12.67;;;3.10;99.90;;;;;;4974584;28;20458;-87
2021/03/03 01:15:53;;;;;;;22.50;13.40;;;3.00;99.90;;;;;;4974270;28;20458;-89
2021/03/03 01:18:19;;;;;;;18.93;12.40;;;3.00;99.90;;;;;;4973241;28;20477;-88
2021/03/03 01:20:46;;;;;;;21.37;12.10;;;3.00;99.90;;;;;;4974284;28;20450;-88
2021/03/03 01:23:13;;;;;;;18.50;11.50;;;3.00;99.90;;;;;;4974070;28;20461;-88
2021/03/03 01:25:39;;;;;;;23.53;12.77;;;3.00;99.90;;;;;;4978373;28;20446;-86
2021/03/03 01:28:06;;;;;;;25.60;13.30;;;3.00;99.90;;;;;;4978701;28;20461;-89
2021/03/03 01:30:32;;;;;;;22.47;12.50;;;3.10;99.90;;;;;;4974257;28;20497;-87
2021/03/03 01:32:58;;;;;;;21.37;11.73;;;3.00;99.90;;;;;;4970066;28;20454;-88
2021/03/03 01:35:25;;;;;;;22.77;13.33;;;3.10;99.90;;;;;;4924063;28;20454;-89
2021/03/03 01:37:51;;;;;;;20.50;12.93;;;3.00;99.90;;;;;;4973822;28;20458;-87
2021/03/03 01:40:18;;;;;;;22.40;13.57;;;3.00;99.90;;;;;;4973756;28;20454;-87
2021/03/03 01:42:45;;;;;;;24.87;12.77;;;3.00;99.90;;;;;;4973444;28;20482;-88
2021/03/03 01:45:12;;;;;;;19.20;12.60;;;2.90;99.90;;;;;;4973529;28;20458;-88
2021/03/03 01:47:39;;;;;;;30.10;12.90;;;2.90;99.90;;;;;;4972603;28;20453;-88
2021/03/03 01:50:08;;;;;;;17.60;11.63;;;2.90;99.90;;;;;;4973738;28;20490;-89
2021/03/03 01:52:40;;;;;;;20.37;12.30;;;2.90;99.90;;;;;;4970662;28;20520;-89
2021/03/03 01:55:08;;;;;;;24.57;11.93;;;2.90;99.90;;;;;;4974000;28;20458;-87
2021/03/03 01:57:38;;;;;;;25.73;13.30;;;2.90;99.90;;;;;;4970848;28;20470;-89
2021/03/03 02:00:07;;;;;;;19.83;12.13;;;2.80;99.90;;;;;;4973978;28;20442;-89
2021/03/03 02:02:33;;;;;;;22.77;13.60;;;2.80;99.90;;;;;;4972806;28;20458;-87
2021/03/03 02:05:01;;;;;;;19.80;12.87;;;2.80;99.90;;;;;;4970870;28;20447;-88
2021/03/03 02:07:37;;;;;;;19.87;12.50;;;2.80;99.90;;;;;;4924843;28;20915;-88
2021/03/03 02:10:11;;;;;;;19.77;12.80;;;2.80;99.90;;;;;;4973754;28;20485;-88
2021/03/03 02:12:43;;;;;;;19.13;11.70;;;2.80;99.90;;;;;;4969798;28;20449;-89
2021/03/03 02:15:12;;;;;;;27.80;13.07;;;2.80;99.90;;;;;;4974059;28;20807;-87
2021/03/03 02:17:41;;;;;;;19.60;12.97;;;2.80;99.90;;;;;;4972716;28;20520;-88
2021/03/03 02:20:09;;;;;;;20.10;12.43;;;2.80;99.90;;;;;;4973687;28;20977;-89
2021/03/03 02:22:46;;;;;;;19.73;11.37;;;2.80;99.90;;;;;;4972021;28;20481;-88
2021/03/03 02:25:27;;;;;;;25.13;12.70;;;2.80;99.90;;;;;;4986859;28;20460;-88
2021/03/03 02:27:55;;;;;;;19.67;12.13;;;2.80;99.90;;;;;;4979600;28;20485;-88
2021/03/03 02:30:24;;;;;;;22.90;12.53;;;2.80;99.90;;;;;;4970916;28;20478;-88
2021/03/03 02:32:51;;;;;;;18.93;12.50;;;2.80;99.90;;;;;;4969691;28;20442;-87
2021/03/03 02:35:19;;;;;;;18.23;12.33;;;2.70;99.90;;;;;;4973395;28;20454;-89
2021/03/03 02:37:47;;;;;;;21.07;12.57;;;2.80;99.90;;;;;;4973259;28;20438;-88
2021/03/03 02:40:14;;;;;;;25.73;11.50;;;2.80;99.90;;;;;;4968082;28;20457;-87
2021/03/03 02:42:42;;;;;;;19.80;11.77;;;2.80;99.90;;;;;;4973224;28;20500;-89
2021/03/03 02:45:12;;;;;;;19.30;11.57;;;2.80;99.90;;;;;;4973232;28;20473;-88
2021/03/03 02:47:39;;;;;;;17.60;10.73;;;2.70;99.90;;;;;;4972019;28;20510;-88
2021/03/03 02:50:08;;;;;;;19.00;10.53;;;2.80;99.90;;;;;;4973137;28;20494;-88
2021/03/03 02:52:51;;;;;;;17.03;11.40;;;2.80;99.90;;;;;;4973313;28;20512;-89
2021/03/03 02:55:18;;;;;;;23.80;13.07;;;2.80;99.90;;;;;;4980340;28;20454;-87
2021/03/03 02:57:46;;;;;;;20.87;12.40;;;2.90;99.90;;;;;;4980557;28;20470;-87
2021/03/03 03:00:16;;;;;;;22.73;12.07;;;3.00;99.90;;;;;;4976755;28;20453;-89
2021/03/03 03:02:46;;;;;;;24.90;12.87;;;3.10;99.90;;;;;;4972763;28;20453;-88
2021/03/03 03:05:14;;;;;;;18.00;11.47;;;3.10;99.90;;;;;;4976467;28;20531;-88
2021/03/03 03:07:45;;;;;;;20.97;13.10;;;3.20;99.90;;;;;;4976252;28;20461;-86
2021/03/03 03:10:14;;;;;;;21.40;13.23;;;3.20;99.90;;;;;;4976586;28;20861;-86
2021/03/03 03:12:45;;;;;;;27.30;13.50;;;3.20;99.90;;;;;;4976498;28;20455;-87
2021/03/03 03:15:17;;;;;;;19.37;12.23;;;3.40;99.90;;;;;;4973605;28;20938;-87
2021/03/03 03:17:48;;;;;;;18.97;12.10;;;3.50;99.90;;;;;;4975577;28;20457;-88
2021/03/03 03:20:16;;;;;;;20.30;13.10;;;3.40;99.90;;;;;;4976462;28;20832;-87
2021/03/03 03:22:44;;;;;;;20.87;12.20;;;3.60;99.90;;;;;;4976530;28;20951;-88
2021/03/03 03:25:14;;;;;;;23.20;12.97;;;3.50;99.90;;;;;;4974713;28;20810;-89
2021/03/03 03:27:42;;;;;;;21.53;13.60;;;3.50;99.90;;;;;;4976301;28;20443;-88
2021/03/03 03:30:12;;;;;;;22.63;13.10;;;4.20;99.90;;;;;;4976493;28;20532;-88
2021/03/03 03:32:39;;;;;;;19.57;12.77;;;3.50;99.90;;;;;;4975079;28;20449;-87
2021/03/03 03:35:06;;;;;;;28.63;13.53;;;3.80;99.90;;;;;;4976105;28;20458;-88
2021/03/03 03:37:33;;;;;;;26.20;13.50;;;3.40;99.90;;;;;;4971789;28;20454;-88
2021/03/03 03:40:01;;;;;;;20.70;13.30;;;3.40;99.90;;;;;;4976041;28;20454;-89
2021/03/03 03:42:29;;;;;;;18.23;12.50;;;3.40;99.90;;;;;;4974078;28;20461;-88
2021/03/03 03:45:01;;;;;;;20.20;13.33;;;3.30;99.90;;;;;;4976136;28;20442;-88
2021/03/03 03:47:29;;;;;;;18.87;12.20;;;3.20;99.90;;;;;;4974988;28;20972;-88
2021/03/03 03:49:55;;;;;;;25.63;14.17;;;3.20;99.90;;;;;;4975884;28;20452;-88
2021/03/03 03:52:22;;;;;;;20.37;12.30;;;3.20;99.90;;;;;;4975936;28;20464;-89
2021/03/03 03:54:50;;;;;;;22.80;12.23;;;3.10;99.90;;;;;;4976006;28;20461;-86
2021/03/03 03:57:16;;;;;;;21.07;13.37;;;3.10;99.90;;;;;;4975573;28;20568;-88
2021/03/03 03:59:43;;;;;;;21.53;12.67;;;3.10;99.90;;;;;;4975602;28;20965;-88
2021/03/03 04:02:11;;;;;;;23.13;12.50;;;3.10;99.90;;;;;;4974404;28;20934;-85
2021/03/03 04:04:39;;;;;;;24.63;13.27;;;3.10;99.90;;;;;;4975543;28;20456;-87
2021/03/03 04:07:05;;;;;;;22.53;12.07;;;3.00;99.90;;;;;;4972893;28;20462;-88
2021/03/03 04:09:32;;;;;;;20.87;12.30;;;3.00;99.90;;;;;;4975335;28;20928;-88
2021/03/03 04:11:58;;;;;;;22.30;11.70;;;2.90;99.90;;;;;;4975062;28;20884;-86
2021/03/03 04:14:25;;;;;;;26.23;12.93;;;2.90;99.90;;;;;;4975159;28;20821;-87
2021/03/03 04:16:52;;;;;;;19.03;12.50;;;2.90;99.90;;;;;;4974207;28;21095;-89
2021/03/03 04:19:18;;;;;;;17.90;11.63;;;2.80;99.90;;;;;;4975279;28;20442;-86
2021/03/03 04:21:47;;;;;;;17.97;12.50;;;2.80;99.90;;;;;;4975454;28;20462;-87
2021/03/03 04:24:13;;;;;;;21.17;12.73;;;2.80;99.90;;;;;;4974548;28;20446;-85
2021/03/03 04:26:40;;;;;;;19.67;11.17;;;2.80;99.90;;;;;;4980618;28;20737;-86
2021/03/03 04:29:06;;;;;;;19.67;12.27;;;2.70;99.90;;;;;;4975263;28;20458;-87
2021/03/03 04:31:33;;;;;;;20.33;13.57;;;2.70;99.90;;;;;;4974036;28;20505;-86
2021/03/03 04:33:59;;;;;;;20.80;12.53;;;2.60;99.90;;;;;;4971976;28;20446;-87
2021/03/03 04:36:25;;;;;;;31.37;14.60;;;2.70;99.90;;;;;;4970982;28;20513;-89
2021/03/03 04:38:52;;;;;;;21.30;13.77;;;2.70;99.90;;;;;;4975144;28;20794;-87
2021/03/03 04:41:19;;;;;;;21.87;13.80;;;2.60;99.90;;;;;;4974838;28;20450;-88
2021/03/03 04:43:45;;;;;;;21.87;12.13;;;2.60;99.90;;;;;;4974760;28;20450;-86
2021/03/03 04:46:11;;;;;;;19.60;12.27;;;2.60;99.90;;;;;;4974725;28;20793;-86
2021/03/03 04:48:39;;;;;;;22.70;14.60;;;2.60;99.90;;;;;;4973808;28;20453;-87
2021/03/03 04:51:05;;;;;;;19.70;12.67;;;2.60;99.90;;;;;;4974502;28;20580;-88
2021/03/03 04:53:32;;;;;;;23.00;12.70;;;2.60;99.90;;;;;;4970418;28;20504;-87
2021/03/03 04:55:59;;;;;;;20.37;13.37;;;2.60;99.90;;;;;;4974474;28;20843;-87
2021/03/03 04:58:25;;;;;;;26.50;13.10;;;2.60;99.90;;;;;;4974444;28;20455;-88
2021/03/03 05:00:52;;;;;;;20.13;13.20;;;2.60;99.90;;;;;;4974593;28;20513;-86
2021/03/03 05:03:18;;;;;;;21.87;13.33;;;2.60;99.90;;;;;;4973477;28;20484;-87
2021/03/03 05:05:44;;;;;;;23.60;14.10;;;2.60;99.90;;;;;;4974499;28;20941;-87
2021/03/03 05:08:11;;;;;;;21.90;13.50;;;2.60;99.90;;;;;;4974496;28;20456;-88
2021/03/03 05:10:37;;;;;;;23.10;14.07;;;2.50;99.90;;;;;;4974283;28;20580;-88
2021/03/03 05:13:05;;;;;;;20.50;14.00;;;2.50;99.90;;;;;;4971474;28;20509;-88
2021/03/03 05:15:31;;;;;;;20.07;12.60;;;2.50;99.90;;;;;;4974729;28;20524;-87
2021/03/03 05:17:57;;;;;;;22.27;14.10;;;2.50;99.90;;;;;;4969416;28;21021;-86
2021/03/03 05:20:24;;;;;;;19.87;13.40;;;2.50;99.90;;;;;;4971455;28;20465;-87
2021/03/03 05:22:51;;;;;;;26.10;13.30;;;2.50;99.90;;;;;;4974485;28;20462;-87
2021/03/03 05:25:18;;;;;;;18.90;13.03;;;2.50;99.90;;;;;;4974430;28;20453;-87
2021/03/03 05:27:44;;;;;;;22.70;13.63;;;2.50;99.90;;;;;;4971374;28;20938;-87
2021/03/03 05:30:13;;;;;;;24.20;13.47;;;2.50;99.90;;;;;;4974053;28;20462;-88
2021/03/03 05:32:39;;;;;;;22.50;13.73;;;2.50;99.90;;;;;;4967305;28;20465;-88
2021/03/03 05:35:06;;;;;;;22.30;13.83;;;2.50;99.90;;;;;;4969220;28;20482;-87
2021/03/03 05:37:33;;;;;;;22.37;13.30;;;2.50;99.90;;;;;;4974100;28;20458;-87
2021/03/03 05:39:59;;;;;;;25.60;13.50;;;2.50;99.90;;;;;;4974363;28;20458;-87
2021/03/03 05:42:25;;;;;;;20.93;12.27;;;2.40;99.90;;;;;;4974527;28;20458;-86
2021/03/03 05:44:52;;;;;;;20.43;12.23;;;2.40;99.90;;;;;;4985675;28;20468;-87
2021/03/03 05:47:21;;;;;;;21.80;13.10;;;2.40;99.90;;;;;;4990511;28;20512;-86
2021/03/03 05:49:49;;;;;;;21.77;14.10;;;2.40;99.90;;;;;;4972262;28;20449;-87
2021/03/03 05:52:18;;;;;;;18.43;12.03;;;2.40;99.90;;;;;;4974550;28;20548;-86
2021/03/03 05:54:46;;;;;;;22.80;15.17;;;2.40;99.90;;;;;;4979993;28;20474;-88
2021/03/03 05:57:13;;;;;;;19.17;13.87;;;2.40;99.90;;;;;;4974022;28;20482;-88
2021/03/03 05:59:40;;;;;;;22.67;12.47;;;2.40;99.90;;;;;;4973864;28;20461;-86
2021/03/03 06:02:07;;;;;;;24.13;14.50;;;2.30;99.90;;;;;;4973380;28;20446;-87
2021/03/03 06:04:34;;;;;;;22.87;14.03;;;2.50;99.90;;;;;;4974148;28;20446;-87
2021/03/03 06:07:01;;;;;;;21.70;13.80;;;2.40;99.90;;;;;;4973895;28;20455;-87
2021/03/03 06:09:27;;;;;;;22.70;13.33;;;2.50;99.90;;;;;;4973699;28;20510;-88
2021/03/03 06:11:56;;;;;;;24.63;13.37;;;2.40;99.90;;;;;;4973640;28;20489;-88
2021/03/03 06:14:23;;;;;;;19.80;13.70;;;2.50;99.90;;;;;;4973395;28;20580;-87
2021/03/03 06:16:49;;;;;;;20.23;13.27;;;2.50;99.90;;;;;;4972691;28;20489;-88
2021/03/03 06:19:17;;;;;;;23.37;12.87;;;2.50;99.90;;;;;;4970771;28;20541;-88
2021/03/03 06:21:44;;;;;;;20.73;13.90;;;2.60;99.90;;;;;;4971586;28;20447;-88
2021/03/03 06:24:11;;;;;;;23.30;13.70;;;2.60;99.90;;;;;;4973514;28;20443;-88
2021/03/03 06:26:54;;;;;;;19.07;12.33;;;2.70;99.90;;;;;;4973462;28;20453;-87
2021/03/03 06:29:24;;;;;;;19.70;12.43;;;2.80;99.90;;;;;;4964339;28;20460;-88
2021/03/03 06:31:53;;;;;;;24.23;14.03;;;2.90;99.90;;;;;;4965721;28;20497;-89
2021/03/03 06:34:22;;;;;;;20.93;13.10;;;2.90;99.90;;;;;;4965872;28;20450;-88
2021/03/03 06:37:05;;;;;;;18.47;12.90;;;3.00;99.90;;;;;;4970134;28;20926;-87
2021/03/03 06:39:35;;;;;;;20.17;13.93;;;3.00;99.90;;;;;;4967141;28;20473;-88
2021/03/03 06:42:08;;;;;;;20.90;13.60;;;3.10;99.90;;;;;;4964857;28;20458;-89
2021/03/03 06:44:57;;;;;;;23.27;15.57;;;3.10;99.90;;;;;;4966424;28;21054;-87
2021/03/03 06:47:33;;;;;;;23.27;13.87;;;3.20;99.90;;;;;;4965117;28;20446;-87
2021/03/03 06:50:12;;;;;;;19.00;13.47;;;3.30;99.90;;;;;;4965627;28;20537;-89
2021/03/03 06:52:40;;;;;;;20.37;13.53;;;3.30;99.90;;;;;;4965985;28;20880;-87
2021/03/03 06:55:11;;;;;;;21.20;13.50;;;3.20;99.90;;;;;;4957289;29;20471;-86
2021/03/03 06:57:38;;;;;;;19.53;13.57;;;3.30;99.90;;;;;;4958116;29;20450;-87
2021/03/03 07:00:06;;;;;;;24.97;14.90;;;3.30;99.90;;;;;;4957522;28;20458;-87
2021/03/03 07:02:32;;;;;;;21.57;14.40;;;3.40;99.90;;;;;;4956032;29;20458;-87
2021/03/03 07:04:59;;;;;;;19.50;11.70;;;3.50;99.90;;;;;;4959016;28;20517;-87
2021/03/03 07:07:26;;;;;;;23.63;14.80;;;3.50;99.90;;;;;;4976457;28;20455;-86
2021/03/03 07:09:58;;;;;;;23.10;14.60;;;3.70;99.90;;;;;;4976413;28;20503;-87
2021/03/03 07:12:26;;;;;;;21.90;14.03;;;3.70;99.90;;;;;;4973105;28;20580;-87
2021/03/03 07:14:58;;;;;;;23.20;13.30;;;3.80;99.90;;;;;;4973355;28;20453;-86
2021/03/03 07:17:25;;;;;;;30.83;13.83;;;3.80;99.90;;;;;;4975771;28;20459;-86
2021/03/03 07:19:52;;;;;;;19.57;14.17;;;3.80;99.90;;;;;;4976783;28;20457;-87
2021/03/03 07:22:28;;;;;;;25.83;12.80;;;3.90;99.90;;;;;;4978288;28;20592;-85
2021/03/03 07:25:04;;;;;;;22.57;15.27;;;4.00;99.90;;;;;;4981867;28;20450;-87
2021/03/03 07:27:32;;;;;;;20.17;13.63;;;4.10;99.90;;;;;;4976438;28;20455;-88
2021/03/03 07:30:00;;;;;;;22.07;14.80;;;4.20;99.90;;;;;;4976214;28;20458;-87
2021/03/03 07:32:27;;;;;;;20.30;14.07;;;4.30;99.90;;;;;;4975963;28;20858;-88
2021/03/03 07:34:55;;;;;;;21.17;13.43;;;4.40;99.90;;;;;;4969503;28;20457;-87
2021/03/03 07:37:23;;;;;;;22.50;12.70;;;4.40;99.90;;;;;;4965261;28;20448;-87
2021/03/03 07:40:13;;;;;;;22.83;14.10;;;4.60;99.90;;;;;;4967564;28;21014;-88
2021/03/03 07:42:43;;;;;;;21.43;14.10;;;4.70;99.90;;;;;;4963621;28;20942;-88
2021/03/03 07:45:11;;;;;;;18.90;12.77;;;4.80;99.90;;;;;;4953485;29;20440;-86
2021/03/03 07:47:39;;;;;;;18.87;12.97;;;4.90;99.90;;;;;;4955713;29;20443;-88
2021/03/03 07:50:09;;;;;;;19.63;13.13;;;5.00;99.90;;;;;;4957742;29;20451;-86
2021/03/03 07:52:39;;;;;;;20.37;13.23;;;5.20;99.90;;;;;;4956895;29;20570;-88
2021/03/03 07:55:11;;;;;;;22.10;14.03;;;5.30;99.90;;;;;;4955437;29;20837;-87
2021/03/03 07:57:43;;;;;;;20.20;13.30;;;5.50;99.90;;;;;;4957272;29;20469;-89
2021/03/03 08:00:12;;;;;;;20.67;13.23;;;5.50;99.90;;;;;;4953240;29;20451;-85
2021/03/03 08:02:50;;;;;;;19.33;14.10;;;5.60;99.90;;;;;;4955040;29;20457;-85
2021/03/03 08:05:27;;;;;;;24.70;14.80;;;5.70;99.90;;;;;;4955999;29;20450;-84
2021/03/03 08:08:16;;;;;;;23.30;13.73;;;5.70;99.90;;;;;;4955998;29;20457;-85
2021/03/03 08:10:44;;;;;;;20.60;13.67;;;5.80;99.90;;;;;;4957604;29;20482;-86
2021/03/03 08:13:12;;;;;;;20.67;13.57;;;5.90;99.90;;;;;;4956371;29;20467;-87
2021/03/03 08:15:40;;;;;;;19.40;14.50;;;6.00;99.90;;;;;;4956609;29;20857;-87
2021/03/03 08:18:20;;;;;;;18.20;13.23;;;6.10;99.90;;;;;;4955235;29;20459;-86
2021/03/03 08:20:48;;;;;;;20.40;15.30;;;6.30;99.90;;;;;;4956678;29;20478;-86
2021/03/03 08:23:48;;;;;;;19.83;14.67;;;6.40;99.90;;;;;;4956270;29;20796;-88
2021/03/03 08:26:42;;;;;;;27.33;17.00;;;6.50;99.90;;;;;;4955853;29;20478;-87
2021/03/03 08:29:17;;;;;;;31.13;15.13;;;6.70;99.90;;;;;;4955694;29;20454;-88
2021/03/03 08:31:43;;;;;;;25.03;15.27;;;6.80;99.90;;;;;;4954554;29;21001;-88
2021/03/03 08:34:11;;;;;;;26.60;15.77;;;6.80;99.90;;;;;;4955701;29;20459;-88
2021/03/03 08:37:01;;;;;;;30.57;16.60;;;7.00;99.90;;;;;;4955794;29;20483;-88
2021/03/03 08:39:38;;;;;;;26.87;16.07;;;7.10;99.90;;;;;;4956033;29;20455;-89
2021/03/03 08:42:31;;;;;;;26.57;15.00;;;7.30;99.90;;;;;;4956706;29;20450;-89
2021/03/03 08:44:59;;;;;;;30.67;16.50;;;7.40;99.90;;;;;;4955896;29;20451;-88
2021/03/03 08:47:52;;;;;;;28.10;15.43;;;7.50;99.90;;;;;;4955430;29;20816;-89
2021/03/03 08:50:49;;;;;;;22.33;15.17;;;7.70;99.90;;;;;;4955337;29;20443;-87
2021/03/03 08:53:19;;;;;;;23.00;14.03;;;7.80;99.90;;;;;;4961805;28;20538;-88
2021/03/03 08:55:46;;;;;;;24.17;14.47;;;8.00;99.90;;;;;;4956910;29;20533;-89
2021/03/03 08:58:58;;;;;;;19.37;13.80;;;8.00;99.90;;;;;;4955482;29;20455;-89
2021/03/03 09:01:54;;;;;;;21.30;13.90;;;8.20;99.90;;;;;;4921428;29;20509;-88
2021/03/03 09:04:22;;;;;;;25.13;15.50;;;8.30;99.90;;;;;;4955715;29;20506;-88
2021/03/03 09:06:50;;;;;;;20.50;14.50;;;8.40;99.90;;;;;;4956481;29;20955;-87
2021/03/03 09:09:17;;;;;;;35.70;15.27;;;8.50;99.90;;;;;;4960504;29;20451;-88
2021/03/03 09:11:43;;;;;;;21.47;14.60;;;8.40;99.90;;;;;;4955015;29;20501;-89
2021/03/03 09:14:10;;;;;;;21.83;14.73;;;8.50;99.90;;;;;;4956618;29;20448;-88
2021/03/03 09:17:01;;;;;;;24.23;15.30;;;8.60;99.90;;;;;;4954676;29;20462;-89
2021/03/03 09:19:30;;;;;;;27.30;14.63;;;8.70;99.90;;;;;;4955741;29;20529;-88
2021/03/03 09:21:56;;;;;;;27.37;15.87;;;8.80;99.90;;;;;;4955805;29;20823;-89
2021/03/03 09:24:23;;;;;;;25.47;15.37;;;8.90;99.90;;;;;;4955617;29;20457;-87
2021/03/03 09:27:00;;;;;;;23.97;15.90;;;8.90;99.90;;;;;;4955872;29;20807;-88
2021/03/03 09:29:31;;;;;;;25.00;15.60;;;9.00;99.90;;;;;;4955023;29;20508;-89
2021/03/03 09:32:04;;;;;;;24.70;16.93;;;9.00;99.90;;;;;;4951700;29;20577;-89
2021/03/03 09:34:32;;;;;;;33.23;16.97;;;9.30;99.90;;;;;;4951560;29;20939;-88
2021/03/03 09:37:00;;;;;;;30.70;17.00;;;9.10;99.90;;;;;;4955106;29;20541;-89
2021/03/03 09:39:27;;;;;;;28.03;16.40;;;9.10;99.90;;;;;;4955993;29;20825;-89
2021/03/03 09:42:01;;;;;;;23.13;15.90;;;9.30;99.90;;;;;;4955841;29;20455;-90
2021/03/03 09:44:42;;;;;;;24.97;16.23;;;9.50;99.90;;;;;;4954374;29;20462;-89
2021/03/03 09:47:09;;;;;;;27.20;15.53;;;9.60;99.90;;;;;;4954891;29;20522;-87
2021/03/03 09:49:37;;;;;;;22.67;16.43;;;9.70;99.90;;;;;;4954920;29;20806;-87
2021/03/03 09:52:06;;;;;;;24.83;15.60;;;9.80;99.90;;;;;;4954613;29;20513;-88
2021/03/03 09:54:34;;;;;;;24.13;16.50;;;10.00;99.90;;;;;;4951535;29;20471;-88
2021/03/03 09:57:09;;;;;;;25.77;15.97;;;10.10;99.90;;;;;;4954458;29;20545;-87
2021/03/03 09:59:38;;;;;;;23.67;14.67;;;10.20;99.90;;;;;;4951598;29;20506;-86
2021/03/03 10:02:06;;;;;;;29.33;16.43;;;10.30;99.90;;;;;;4953118;29;20462;-86
2021/03/03 10:04:37;;;;;;;29.00;15.67;;;10.40;99.90;;;;;;4954866;28;20455;-87
2021/03/03 10:07:09;;;;;;;26.40;15.30;;;10.50;99.90;;;;;;4953453;29;20470;-87
2021/03/03 10:09:40;;;;;;;24.03;16.40;;;10.60;99.90;;;;;;4958377;29;20518;-87
2021/03/03 10:12:09;;;;;;;29.20;16.40;;;10.70;99.90;;;;;;4958273;29;20533;-88
2021/03/03 10:14:35;;;;;;;28.57;16.60;;;10.80;99.90;;;;;;4959406;29;20463;-88
2021/03/03 10:17:03;;;;;;;24.60;15.43;;;10.90;99.90;;;;;;4960617;29;20513;-86
2021/03/03 10:19:29;;;;;;;25.37;17.37;;;11.00;99.90;;;;;;4960502;29;20455;-87
2021/03/03 10:21:57;;;;;;;23.03;17.07;;;11.10;99.90;;;;;;4957990;29;20459;-86
2021/03/03 10:24:25;;;;;;;24.43;15.50;;;11.10;99.90;;;;;;4960156;29;20792;-86
2021/03/03 10:26:52;;;;;;;23.30;15.30;;;11.20;99.90;;;;;;4959712;29;20471;-87
2021/03/03 10:29:35;;;;;;;24.20;16.80;;;11.20;99.90;;;;;;4959969;29;20478;-84
2021/03/03 10:32:09;;;;;;;24.73;16.03;;;11.40;99.90;;;;;;4958384;29;20525;-85
2021/03/03 10:34:36;;;;;;;31.40;16.53;;;11.50;99.90;;;;;;4959506;29;20523;-87
2021/03/03 10:37:04;;;;;;;28.47;17.43;;;11.60;99.90;;;;;;4959221;29;20458;-85
2021/03/03 10:39:31;;;;;;;24.63;17.40;;;11.60;99.90;;;;;;4959671;29;20453;-87
2021/03/03 10:42:01;;;;;;;26.37;15.47;;;11.60;99.90;;;;;;4954221;29;20493;-88
2021/03/03 10:44:38;;;;;;;25.43;16.50;;;11.80;99.90;;;;;;4957721;29;20455;-85
2021/03/03 10:47:05;;;;;;;27.50;17.90;;;11.90;99.90;;;;;;4956482;29;20521;-87
2021/03/03 10:49:32;;;;;;;25.17;16.90;;;12.10;99.90;;;;;;4957493;29;20446;-87
2021/03/03 10:51:58;;;;;;;23.53;16.77;;;12.30;99.90;;;;;;4957651;29;20494;-88
2021/03/03 10:54:32;;;;;;;28.97;18.23;;;12.30;99.90;;;;;;4958070;29;20494;-88
2021/03/03 10:57:06;;;;;;;25.37;18.50;;;12.40;99.60;;;;;;4957674;29;20821;-85
2021/03/03 10:59:32;;;;;;;33.03;18.57;;;12.50;99.70;;;;;;4957319;29;20486;-87
2021/03/03 11:01:59;;;;;;;30.70;19.00;;;12.60;99.60;;;;;;4956564;29;20470;-86
2021/03/03 11:04:37;;;;;;;25.87;17.90;;;12.70;99.50;;;;;;4957881;29;20486;-86
2021/03/03 11:07:04;;;;;;;27.10;17.33;;;12.80;99.60;;;;;;4957382;29;20443;-87
2021/03/03 11:09:31;;;;;;;30.83;17.77;;;12.70;99.80;;;;;;4956987;29;20459;-86
2021/03/03 11:11:58;;;;;;;24.63;16.87;;;12.70;99.70;;;;;;4956611;29;20996;-85
2021/03/03 11:14:25;;;;;;;26.63;16.20;;;12.80;99.50;;;;;;4956896;29;20455;-86
2021/03/03 11:16:52;;;;;;;25.20;17.50;;;12.90;99.50;;;;;;4955365;28;20998;-86
2021/03/03 11:19:19;;;;;;;23.00;16.23;;;13.10;99.40;;;;;;4956900;29;20546;-88
2021/03/03 11:21:45;;;;;;;26.90;17.20;;;13.00;99.10;;;;;;4956929;29;20458;-88
2021/03/03 11:24:12;;;;;;;26.53;17.23;;;13.10;99.20;;;;;;4957173;29;20463;-88
2021/03/03 11:26:41;;;;;;;22.10;16.23;;;13.20;98.70;;;;;;4956803;29;20497;-86
2021/03/03 11:29:08;;;;;;;32.23;17.33;;;12.80;98.70;;;;;;4956714;29;20529;-88
2021/03/03 11:31:35;;;;;;;27.73;16.20;;;13.00;98.90;;;;;;4957110;29;20502;-87
2021/03/03 11:34:01;;;;;;;30.63;17.00;;;13.10;98.90;;;;;;4956335;29;20466;-89
2021/03/03 11:36:28;;;;;;;24.93;18.53;;;13.00;99.30;;;;;;4957397;29;20526;-90
2021/03/03 11:38:54;;;;;;;21.07;16.53;;;13.00;99.30;;;;;;4951720;29;20935;-89
2021/03/03 11:41:21;;;;;;;27.70;16.53;;;13.10;99.50;;;;;;4957055;29;20514;-89
2021/03/03 11:43:48;;;;;;;21.40;15.97;;;13.30;99.10;;;;;;4957273;29;20459;-88
2021/03/03 11:46:15;;;;;;;21.27;12.30;;;13.40;99.10;;;;;;4957172;29;20958;-91
2021/03/03 11:48:41;;;;;;;19.23;13.77;;;14.50;99.90;;;;;;4960421;29;20455;-90
2021/03/03 11:51:08;;;;;;;20.33;13.30;;;14.60;99.20;;;;;;4960727;29;20479;-90
2021/03/03 11:53:34;;;;;;;20.23;13.57;;;14.70;97.50;;;;;;4954949;29;20482;-89
2021/03/03 11:56:00;;;;;;;22.63;15.30;;;14.80;97.70;;;;;;4951077;29;20487;-87
2021/03/03 11:58:27;;;;;;;26.77;17.20;;;14.20;96.60;;;;;;4956065;29;20520;-86
2021/03/03 12:00:54;;;;;;;22.17;15.67;;;14.20;96.50;;;;;;4956084;29;20965;-87
2021/03/03 12:03:21;;;;;;;25.10;16.50;;;14.20;96.30;;;;;;4954918;29;20914;-86
2021/03/03 12:05:48;;;;;;;23.13;16.77;;;14.30;96.80;;;;;;4956186;29;20458;-87
2021/03/03 12:08:14;;;;;;;22.23;15.10;;;14.30;95.80;;;;;;4955933;29;20455;-86
2021/03/03 12:10:41;;;;;;;22.93;16.23;;;14.40;95.30;;;;;;4955959;29;20459;-87
2021/03/03 12:13:07;;;;;;;22.93;16.67;;;14.10;96.40;;;;;;4956097;29;20462;-88
2021/03/03 12:15:33;;;;;;;23.33;15.00;;;14.10;96.30;;;;;;4952998;29;20510;-88
2021/03/03 12:18:01;;;;;;;22.20;15.17;;;14.30;95.70;;;;;;4954899;29;20447;-86
2021/03/03 12:20:28;;;;;;;24.50;16.27;;;14.20;95.60;;;;;;4956802;29;20448;-88
2021/03/03 12:22:55;;;;;;;22.37;15.80;;;14.10;95.70;;;;;;4955777;29;20455;-87
2021/03/03 12:25:25;;;;;;;25.10;16.87;;;14.20;96.10;;;;;;4953094;29;20455;-89
2021/03/03 12:27:52;;;;;;;31.30;15.77;;;14.20;95.70;;;;;;4956357;28;20548;-85
2021/03/03 12:30:19;;;;;;;24.43;17.40;;;14.10;95.10;;;;;;4960719;29;20446;-87
2021/03/03 12:32:45;;;;;;;26.87;16.93;;;14.20;96.10;;;;;;4956079;29;20498;-87
2021/03/03 12:35:13;;;;;;;24.10;16.20;;;14.10;95.50;;;;;;4955646;29;20490;-87
2021/03/03 12:37:40;;;;;;;21.93;16.30;;;14.00;96.20;;;;;;4955483;29;20825;-86
2021/03/03 12:40:07;;;;;;;21.73;16.70;;;14.00;96.40;;;;;;4955478;29;20506;-87
2021/03/03 12:42:34;;;;;;;24.83;17.10;;;13.80;96.40;;;;;;4955556;29;20459;-86
2021/03/03 12:45:02;;;;;;;23.60;15.70;;;13.80;96.60;;;;;;4955582;29;20455;-88